Time;durP1;ratioP1;P1;durP2;ratioP2;P2;SDS_P1;SDS_P2;PMS_P1;PMS_P2;Temp;Humidity;BMP_temperature;BMP_pressure;BME280_temperature;BME280_humidity;BME280_pressure;Samples;Min_cycle;Max_cycle;Signal;HPM_P1;HPM_P2
2023/09/06 00:00:56;;;;;;;1.30;1.20;;;;;;;;;;5028301;28;20115;-59
2023/09/06 00:03:23;;;;;;;1.42;1.33;;;;;;;;;;5029807;28;20116;-59
2023/09/06 00:05:49;;;;;;;1.70;1.60;;;;;;;;;;5028474;28;20136;-59
2023/09/06 00:08:16;;;;;;;1.65;1.52;;;;;;;;;;5026555;28;20041;-59
2023/09/06 00:10:46;;;;;;;1.95;1.85;;;;;;;;;;5028901;28;20081;-59
2023/09/06 00:13:13;;;;;;;1.60;1.50;;;;;;;;;;5027481;28;20037;-59
2023/09/06 00:15:39;;;;;;;1.90;1.80;;;;;;;;;;5026508;28;20034;-59
2023/09/06 00:18:06;;;;;;;2.28;1.65;;;;;;;;;;5028564;28;20091;-59
2023/09/06 00:20:36;;;;;;;1.80;1.70;;;;;;;;;;5024448;28;20052;-59
2023/09/06 00:23:04;;;;;;;1.60;1.50;;;;;;;;;;5027004;28;20037;-59
2023/09/06 00:25:33;;;;;;;1.55;1.45;;;;;;;;;;5028832;28;20127;-59
2023/09/06 00:28:00;;;;;;;1.58;1.48;;;;;;;;;;5023644;28;20143;-59
2023/09/06 00:30:26;;;;;;;1.92;1.50;;;;;;;;;;5028668;28;20072;-59
2023/09/06 00:32:53;;;;;;;1.60;1.50;;;;;;;;;;5028282;28;20065;-59
2023/09/06 00:35:25;;;;;;;2.00;1.80;;;;;;;;;;5028254;28;20080;-59
2023/09/06 00:37:51;;;;;;;1.70;1.60;;;;;;;;;;5028190;28;20037;-59
2023/09/06 00:40:19;;;;;;;1.30;1.20;;;;;;;;;;5028522;28;20053;-59
2023/09/06 00:42:48;;;;;;;1.58;1.48;;;;;;;;;;5022943;28;20037;-59
2023/09/06 00:45:15;;;;;;;1.48;1.38;;;;;;;;;;5028573;28;20033;-59
2023/09/06 00:47:42;;;;;;;1.33;1.23;;;;;;;;;;5027868;28;20058;-59
2023/09/06 00:50:14;;;;;;;1.55;1.45;;;;;;;;;;5021089;28;20054;-58
2023/09/06 00:52:41;;;;;;;1.38;1.27;;;;;;;;;;5023785;28;20433;-59
2023/09/06 00:55:08;;;;;;;1.05;1.05;;;;;;;;;;5027399;28;20041;-59
2023/09/06 00:57:34;;;;;;;1.35;1.25;;;;;;;;;;5027243;28;20053;-58
2023/09/06 01:00:02;;;;;;;1.20;1.20;;;;;;;;;;5027864;28;20501;-59
2023/09/06 01:02:28;;;;;;;1.20;1.10;;;;;;;;;;5028334;28;20107;-59
2023/09/06 01:04:54;;;;;;;1.27;1.17;;;;;;;;;;5025820;28;20045;-59
2023/09/06 01:07:24;;;;;;;1.17;1.08;;;;;;;;;;5028090;28;20132;-59
2023/09/06 01:09:50;;;;;;;1.48;1.38;;;;;;;;;;5026644;28;20049;-59
2023/09/06 01:12:16;;;;;;;1.40;1.30;;;;;;;;;;5024612;28;20501;-59
2023/09/06 01:14:42;;;;;;;1.63;1.52;;;;;;;;;;5027720;28;20053;-59
2023/09/06 01:17:09;;;;;;;1.42;1.33;;;;;;;;;;5027632;28;20561;-59
2023/09/06 01:19:37;;;;;;;1.52;1.42;;;;;;;;;;5028131;28;20103;-58
2023/09/06 01:22:11;;;;;;;0.82;0.82;;;;;;;;;;5027347;28;20052;-59
2023/09/06 01:24:37;;;;;;;1.00;1.00;;;;;;;;;;5027522;28;20579;-59
2023/09/06 01:27:05;;;;;;;1.00;1.00;;;;;;;;;;5027432;28;20121;-59
2023/09/06 01:29:31;;;;;;;1.08;1.05;;;;;;;;;;5027719;28;20110;-59
2023/09/06 01:31:57;;;;;;;1.70;1.60;;;;;;;;;;5024603;28;20088;-59
2023/09/06 01:34:23;;;;;;;1.30;1.20;;;;;;;;;;5027506;28;20042;-59
2023/09/06 01:36:49;;;;;;;1.65;1.55;;;;;;;;;;5027147;28;20033;-59
2023/09/06 01:39:15;;;;;;;2.90;2.08;;;;;;;;;;5020649;28;20076;-59
2023/09/06 01:41:41;;;;;;;1.80;1.70;;;;;;;;;;5027348;28;20064;-59
2023/09/06 01:44:07;;;;;;;1.90;1.80;;;;;;;;;;5027980;28;20041;-59
2023/09/06 01:46:33;;;;;;;1.83;1.73;;;;;;;;;;5026466;28;20048;-59
2023/09/06 01:48:59;;;;;;;1.98;1.88;;;;;;;;;;5022024;28;20304;-59
2023/09/06 01:51:26;;;;;;;2.03;1.92;;;;;;;;;;5025541;28;20654;-59
2023/09/06 01:53:52;;;;;;;1.73;1.63;;;;;;;;;;5026024;28;20377;-59
2023/09/06 01:56:18;;;;;;;1.58;1.48;;;;;;;;;;5027155;28;20564;-59
2023/09/06 01:58:44;;;;;;;1.92;1.83;;;;;;;;;;5019474;28;20124;-60
2023/09/06 02:01:10;;;;;;;1.60;1.50;;;;;;;;;;5027081;28;20045;-59
2023/09/06 02:03:36;;;;;;;1.88;1.50;;;;;;;;;;5026553;28;20156;-59
2023/09/06 02:06:05;;;;;;;1.85;1.67;;;;;;;;;;5022971;28;20034;-59
2023/09/06 02:08:32;;;;;;;1.40;1.30;;;;;;;;;;5018339;28;20050;-59
2023/09/06 02:10:58;;;;;;;1.40;1.30;;;;;;;;;;5026127;28;20045;-59
2023/09/06 02:13:24;;;;;;;1.90;1.80;;;;;;;;;;5025879;28;20041;-59
2023/09/06 02:15:50;;;;;;;1.60;1.50;;;;;;;;;;5025859;28;20052;-59
2023/09/06 02:18:17;;;;;;;1.58;1.48;;;;;;;;;;5020152;28;20045;-59
2023/09/06 02:20:44;;;;;;;1.50;1.40;;;;;;;;;;5024674;28;20045;-59
2023/09/06 02:23:10;;;;;;;1.52;1.42;;;;;;;;;;5024520;28;20044;-59
2023/09/06 02:25:36;;;;;;;1.67;1.58;;;;;;;;;;5027131;28;20124;-59
2023/09/06 02:28:07;;;;;;;1.55;1.45;;;;;;;;;;5025468;28;20072;-59
2023/09/06 02:30:37;;;;;;;1.60;1.50;;;;;;;;;;5026562;28;20045;-59
2023/09/06 02:33:04;;;;;;;1.70;1.60;;;;;;;;;;5025134;28;20096;-59
2023/09/06 02:35:30;;;;;;;2.15;2.05;;;;;;;;;;5025891;28;20080;-59
2023/09/06 02:37:56;;;;;;;1.80;1.67;;;;;;;;;;5026119;28;20060;-59
2023/09/06 02:40:22;;;;;;;1.70;1.60;;;;;;;;;;5026206;28;20468;-59
2023/09/06 02:42:49;;;;;;;1.70;1.60;;;;;;;;;;5023716;28;20038;-59
2023/09/06 02:45:15;;;;;;;1.58;1.48;;;;;;;;;;5024272;28;20045;-58
2023/09/06 02:47:48;;;;;;;1.40;1.30;;;;;;;;;;5025140;28;20137;-58
2023/09/06 02:50:14;;;;;;;1.58;1.48;;;;;;;;;;5024075;28;20080;-58
2023/09/06 02:52:44;;;;;;;1.30;1.20;;;;;;;;;;5022723;28;20051;-59
2023/09/06 02:55:13;;;;;;;1.48;1.38;;;;;;;;;;5022450;28;20049;-59
2023/09/06 02:57:40;;;;;;;1.30;1.23;;;;;;;;;;5024234;28;20069;-59
2023/09/06 03:00:25;;;;;;;1.00;1.00;;;;;;;;;;5024966;28;20073;-59
2023/09/06 03:02:52;;;;;;;1.20;1.10;;;;;;;;;;5017301;28;20041;-59
2023/09/06 03:05:18;;;;;;;1.20;1.20;;;;;;;;;;5025787;28;20115;-59
2023/09/06 03:07:48;;;;;;;1.13;1.02;;;;;;;;;;5025929;28;20060;-59
2023/09/06 03:10:15;;;;;;;0.90;0.90;;;;;;;;;;5022851;28;20053;-58
2023/09/06 03:12:43;;;;;;;1.20;1.20;;;;;;;;;;5016952;28;20044;-59
2023/09/06 03:15:10;;;;;;;1.33;1.23;;;;;;;;;;5024753;28;20393;-59
2023/09/06 03:17:36;;;;;;;1.15;1.02;;;;;;;;;;5025724;28;20053;-59
2023/09/06 03:20:18;;;;;;;1.20;1.10;;;;;;;;;;5025654;28;20040;-59
2023/09/06 03:22:46;;;;;;;;;;;;;;;;;;5025954;28;20048;-59
2023/09/06 03:25:14;;;;;;;0.93;0.93;;;;;;;;;;5024616;28;19967;-59
2023/09/06 03:27:42;;;;;;;1.83;1.73;;;;;;;;;;5025320;28;20157;-59
2023/09/06 03:30:08;;;;;;;1.35;1.25;;;;;;;;;;5024998;28;20064;-59
2023/09/06 03:32:35;;;;;;;1.50;1.40;;;;;;;;;;5024022;28;20099;-59
2023/09/06 03:35:04;;;;;;;0.98;0.98;;;;;;;;;;5024932;28;20042;-59
2023/09/06 03:37:30;;;;;;;1.42;1.33;;;;;;;;;;5024653;28;20063;-59
2023/09/06 03:39:56;;;;;;;1.15;1.05;;;;;;;;;;5024789;28;20045;-59
2023/09/06 03:42:23;;;;;;;1.05;1.00;;;;;;;;;;5025435;28;20049;-59
2023/09/06 03:44:49;;;;;;;1.00;1.00;;;;;;;;;;5025291;28;20061;-59
2023/09/06 03:47:16;;;;;;;1.05;1.02;;;;;;;;;;5024999;28;20064;-59
2023/09/06 03:49:43;;;;;;;1.33;1.23;;;;;;;;;;5024391;28;20589;-59
2023/09/06 03:52:10;;;;;;;0.93;0.93;;;;;;;;;;5025157;28;20044;-59
2023/09/06 03:54:37;;;;;;;1.40;1.30;;;;;;;;;;5024591;28;20037;-59
2023/09/06 03:57:07;;;;;;;1.08;1.08;;;;;;;;;;5024066;28;20042;-59
2023/09/06 03:59:37;;;;;;;1.20;1.10;;;;;;;;;;5024694;28;20547;-59
2023/09/06 04:02:07;;;;;;;1.30;1.20;;;;;;;;;;5024355;28;20051;-59
2023/09/06 04:04:34;;;;;;;1.08;1.05;;;;;;;;;;5025217;28;20046;-59
2023/09/06 04:07:00;;;;;;;1.58;1.48;;;;;;;;;;5024061;28;20652;-59
2023/09/06 04:09:31;;;;;;;0.95;0.95;;;;;;;;;;5024180;28;20038;-59
2023/09/06 04:11:58;;;;;;;1.33;1.23;;;;;;;;;;5024802;28;20061;-59
2023/09/06 04:14:25;;;;;;;1.02;0.90;;;;;;;;;;5021770;28;20065;-59
2023/09/06 04:16:51;;;;;;;1.33;1.23;;;;;;;;;;5023484;28;20049;-59
2023/09/06 04:19:17;;;;;;;1.38;1.27;;;;;;;;;;5024769;28;20053;-58
2023/09/06 04:21:47;;;;;;;1.58;1.48;;;;;;;;;;5024339;28;20121;-59
2023/09/06 04:24:14;;;;;;;1.58;1.48;;;;;;;;;;5017789;28;20050;-58
2023/09/06 04:26:40;;;;;;;1.20;1.20;;;;;;;;;;5026953;28;20152;-59
2023/09/06 04:29:06;;;;;;;1.50;1.40;;;;;;;;;;5025891;28;20382;-59
2023/09/06 04:31:32;;;;;;;0.90;0.90;;;;;;;;;;5028635;28;20125;-58
2023/09/06 04:34:02;;;;;;;1.08;1.08;;;;;;;;;;5026096;28;20053;-58
2023/09/06 04:36:28;;;;;;;1.10;1.00;;;;;;;;;;5028563;28;20030;-59
2023/09/06 04:38:56;;;;;;;1.60;1.50;;;;;;;;;;5028710;28;20042;-59
2023/09/06 04:41:22;;;;;;;1.20;1.10;;;;;;;;;;5027510;28;20053;-59
2023/09/06 04:43:48;;;;;;;1.40;1.30;;;;;;;;;;5023597;28;20086;-58
2023/09/06 04:46:14;;;;;;;1.40;1.30;;;;;;;;;;5028352;28;20053;-59
2023/09/06 04:48:40;;;;;;;1.20;1.10;;;;;;;;;;5027697;28;20819;-59
2023/09/06 04:51:06;;;;;;;1.00;0.95;;;;;;;;;;5028520;28;20053;-59
2023/09/06 04:53:33;;;;;;;1.90;1.20;;;;;;;;;;5027817;28;20060;-59
2023/09/06 04:56:02;;;;;;;1.00;1.00;;;;;;;;;;5026629;28;20033;-59
2023/09/06 04:58:29;;;;;;;1.10;1.00;;;;;;;;;;5028693;28;20092;-59
2023/09/06 05:00:55;;;;;;;1.48;1.27;;;;;;;;;;5028014;28;20041;-59
2023/09/06 05:03:21;;;;;;;0.93;0.82;;;;;;;;;;5027464;28;20135;-58
2023/09/06 05:05:48;;;;;;;1.30;1.10;;;;;;;;;;5027451;28;20497;-59
2023/09/06 05:08:14;;;;;;;0.95;0.80;;;;;;;;;;5027980;28;20607;-59
2023/09/06 05:10:40;;;;;;;1.02;1.00;;;;;;;;;;5027211;28;20387;-59
2023/09/06 05:13:11;;;;;;;1.38;1.27;;;;;;;;;;5028365;28;20045;-59
2023/09/06 05:15:38;;;;;;;1.50;1.40;;;;;;;;;;5028508;28;20071;-60
2023/09/06 05:18:05;;;;;;;1.40;1.30;;;;;;;;;;5025882;28;20105;-59
2023/09/06 05:20:34;;;;;;;1.52;1.42;;;;;;;;;;5027911;28;20504;-59
2023/09/06 05:23:02;;;;;;;1.02;1.02;;;;;;;;;;5027202;28;20409;-59
2023/09/06 05:25:29;;;;;;;1.20;1.17;;;;;;;;;;5026316;28;20528;-59
2023/09/06 05:27:57;;;;;;;0.98;0.90;;;;;;;;;;5027929;28;20033;-59
2023/09/06 05:30:23;;;;;;;0.82;0.80;;;;;;;;;;5027849;28;20044;-59
2023/09/06 05:32:49;;;;;;;1.13;1.00;;;;;;;;;;5028428;28;20047;-59
2023/09/06 05:35:16;;;;;;;1.17;1.08;;;;;;;;;;5027531;28;20048;-59
2023/09/06 05:37:42;;;;;;;0.98;0.77;;;;;;;;;;5026122;28;20041;-58
2023/09/06 05:40:08;;;;;;;0.70;0.70;;;;;;;;;;5027478;28;20617;-59
2023/09/06 05:42:35;;;;;;;1.08;1.02;;;;;;;;;;5026793;28;20037;-59
2023/09/06 05:45:01;;;;;;;0.93;0.93;;;;;;;;;;5026453;28;20045;-59
2023/09/06 05:47:27;;;;;;;0.73;0.57;;;;;;;;;;5025900;28;20666;-58
2023/09/06 05:49:55;;;;;;;0.68;0.68;;;;;;;;;;5027129;28;20057;-59
2023/09/06 05:52:24;;;;;;;0.73;0.73;;;;;;;;;;5026633;28;20060;-58
2023/09/06 05:54:51;;;;;;;0.75;0.70;;;;;;;;;;5021772;28;20068;-59
2023/09/06 05:57:18;;;;;;;0.60;0.60;;;;;;;;;;5026342;28;20056;-59
2023/09/06 05:59:44;;;;;;;0.60;0.60;;;;;;;;;;5025757;28;20045;-58
2023/09/06 06:02:10;;;;;;;0.60;0.60;;;;;;;;;;5026687;28;20057;-59
2023/09/06 06:04:36;;;;;;;0.43;0.40;;;;;;;;;;5026555;28;20531;-59
2023/09/06 06:07:02;;;;;;;0.63;0.63;;;;;;;;;;5026305;28;20097;-59
2023/09/06 06:09:28;;;;;;;0.50;0.50;;;;;;;;;;5026661;28;20120;-59
2023/09/06 06:11:54;;;;;;;0.80;0.52;;;;;;;;;;5026851;28;20049;-59
2023/09/06 06:14:23;;;;;;;1.40;1.30;;;;;;;;;;5026218;28;20041;-59
2023/09/06 06:16:49;;;;;;;0.77;0.73;;;;;;;;;;5026757;28;20611;-59
2023/09/06 06:19:15;;;;;;;1.02;0.98;;;;;;;;;;5026679;28;20665;-59
2023/09/06 06:21:41;;;;;;;0.95;0.95;;;;;;;;;;5026025;28;20049;-59
2023/09/06 06:24:08;;;;;;;1.08;0.98;;;;;;;;;;5026488;28;20049;-59
2023/09/06 06:26:34;;;;;;;1.30;0.73;;;;;;;;;;5024210;28;20044;-59
2023/09/06 06:29:01;;;;;;;0.70;0.70;;;;;;;;;;5026258;28;20057;-60
2023/09/06 06:31:28;;;;;;;0.98;0.70;;;;;;;;;;5021525;28;20045;-59
2023/09/06 06:33:54;;;;;;;0.82;0.82;;;;;;;;;;5020856;28;20045;-59
2023/09/06 06:36:21;;;;;;;1.05;0.95;;;;;;;;;;5025696;28;20037;-59
2023/09/06 06:38:47;;;;;;;0.88;0.88;;;;;;;;;;5025469;28;20037;-58
2023/09/06 06:41:19;;;;;;;0.70;0.60;;;;;;;;;;5025377;28;20044;-59
2023/09/06 06:43:46;;;;;;;1.83;1.38;;;;;;;;;;5023655;28;20120;-58
2023/09/06 06:46:35;;;;;;;1.73;1.38;;;;;;;;;;5021524;28;20132;-59
2023/09/06 06:49:04;;;;;;;0.90;0.90;;;;;;;;;;5019340;28;20413;-59
2023/09/06 06:51:34;;;;;;;0.60;0.60;;;;;;;;;;5024156;28;20612;-59
2023/09/06 06:54:01;;;;;;;0.70;0.60;;;;;;;;;;5023355;28;20110;-59
2023/09/06 06:56:27;;;;;;;0.50;0.50;;;;;;;;;;5025285;28;20068;-59
2023/09/06 06:58:53;;;;;;;0.77;0.77;;;;;;;;;;5025734;28;20410;-59
2023/09/06 07:01:20;;;;;;;0.73;0.73;;;;;;;;;;5026046;28;20075;-59
2023/09/06 07:03:46;;;;;;;0.70;0.70;;;;;;;;;;5024610;28;20112;-59
2023/09/06 07:06:13;;;;;;;1.67;0.90;;;;;;;;;;5026277;28;20166;-58
2023/09/06 07:08:39;;;;;;;1.30;1.20;;;;;;;;;;5026195;28;20049;-59
2023/09/06 07:11:06;;;;;;;1.17;1.08;;;;;;;;;;5024306;28;20932;-61
2023/09/06 07:13:33;;;;;;;2.05;1.10;;;;;;;;;;5025538;28;20669;-58
2023/09/06 07:15:59;;;;;;;0.60;0.60;;;;;;;;;;5024737;28;20045;-59
2023/09/06 07:18:25;;;;;;;0.60;0.57;;;;;;;;;;5025831;28;20048;-60
2023/09/06 07:20:51;;;;;;;0.75;0.75;;;;;;;;;;5025276;28;20041;-58
2023/09/06 07:23:17;;;;;;;1.85;0.70;;;;;;;;;;5022869;28;20160;-59
2023/09/06 07:25:46;;;;;;;1.13;1.00;;;;;;;;;;5025663;28;20080;-60
2023/09/06 07:28:13;;;;;;;0.93;0.90;;;;;;;;;;5025105;28;20029;-59
2023/09/06 07:30:39;;;;;;;1.13;1.02;;;;;;;;;;5021393;28;20042;-60
2023/09/06 07:33:05;;;;;;;0.80;0.80;;;;;;;;;;5023688;28;20044;-59
2023/09/06 07:35:31;;;;;;;1.05;0.70;;;;;;;;;;5024389;28;20033;-60
2023/09/06 07:37:58;;;;;;;1.13;1.10;;;;;;;;;;5024874;28;20509;-60
2023/09/06 07:40:24;;;;;;;0.80;0.80;;;;;;;;;;5024430;28;20045;-60
2023/09/06 07:42:50;;;;;;;1.05;1.02;;;;;;;;;;5020813;28;20044;-60
2023/09/06 07:45:16;;;;;;;1.63;1.52;;;;;;;;;;5024831;28;20049;-59
2023/09/06 07:47:43;;;;;;;1.80;1.70;;;;;;;;;;5025852;28;20067;-60
2023/09/06 07:50:09;;;;;;;1.95;1.23;;;;;;;;;;5024580;28;20392;-59
2023/09/06 07:52:38;;;;;;;1.40;1.30;;;;;;;;;;5024591;28;20037;-59
2023/09/06 07:55:05;;;;;;;1.40;1.30;;;;;;;;;;5025066;28;20068;-60
2023/09/06 07:57:31;;;;;;;1.20;1.10;;;;;;;;;;5025166;28;20046;-59
2023/09/06 07:59:57;;;;;;;0.75;0.75;;;;;;;;;;5024567;28;20496;-59
2023/09/06 08:02:23;;;;;;;0.77;0.70;;;;;;;;;;5027846;28;20126;-59
2023/09/06 08:04:50;;;;;;;0.68;0.68;;;;;;;;;;5029619;28;20072;-59
2023/09/06 08:07:16;;;;;;;1.02;1.02;;;;;;;;;;5028862;28;20056;-59
2023/09/06 08:09:43;;;;;;;1.30;1.20;;;;;;;;;;5025989;28;20124;-59
2023/09/06 08:12:09;;;;;;;1.98;1.27;;;;;;;;;;5028367;28;20041;-60
2023/09/06 08:14:35;;;;;;;0.90;0.90;;;;;;;;;;5026506;28;20034;-59
2023/09/06 08:17:01;;;;;;;1.48;1.38;;;;;;;;;;5028530;28;20040;-60
2023/09/06 08:19:27;;;;;;;1.73;1.58;;;;;;;;;;5027589;28;20928;-60
2023/09/06 08:21:54;;;;;;;1.10;1.00;;;;;;;;;;5028705;28;20041;-60
2023/09/06 08:24:20;;;;;;;1.60;1.10;;;;;;;;;;5027884;28;20045;-59
2023/09/06 08:26:49;;;;;;;1.60;1.40;;;;;;;;;;5028174;28;20033;-60
2023/09/06 08:29:15;;;;;;;1.52;1.00;;;;;;;;;;5028713;28;20034;-59
2023/09/06 08:31:41;;;;;;;2.65;1.50;;;;;;;;;;5029274;28;20113;-60
2023/09/06 08:34:07;;;;;;;1.42;1.20;;;;;;;;;;5027915;28;20466;-60
2023/09/06 08:36:34;;;;;;;1.27;1.10;;;;;;;;;;5022288;28;20045;-60
2023/09/06 08:39:00;;;;;;;1.10;1.10;;;;;;;;;;5028534;28;20109;-59
2023/09/06 08:41:26;;;;;;;1.25;1.13;;;;;;;;;;5027998;28;20041;-60
2023/09/06 08:43:53;;;;;;;3.10;1.40;;;;;;;;;;5028425;28;20654;-59
2023/09/06 08:46:22;;;;;;;1.38;1.27;;;;;;;;;;5028443;28;20653;-60
2023/09/06 08:48:49;;;;;;;1.20;1.10;;;;;;;;;;5023733;28;20131;-59
2023/09/06 08:51:16;;;;;;;2.75;1.38;;;;;;;;;;5021227;28;20409;-60
2023/09/06 08:53:43;;;;;;;0.90;0.90;;;;;;;;;;5025228;28;20120;-60
2023/09/06 08:56:10;;;;;;;2.05;1.63;;;;;;;;;;5022677;28;20048;-60
2023/09/06 08:58:36;;;;;;;1.58;1.30;;;;;;;;;;5024476;28;20037;-59
2023/09/06 09:01:06;;;;;;;1.08;1.00;;;;;;;;;;5023259;28;20045;-59
2023/09/06 09:03:32;;;;;;;1.23;1.10;;;;;;;;;;5026416;28;20123;-59
2023/09/06 09:05:59;;;;;;;1.58;1.30;;;;;;;;;;5028275;28;20037;-60
2023/09/06 09:08:29;;;;;;;1.48;1.30;;;;;;;;;;5027537;28;20055;-59
2023/09/06 09:11:11;;;;;;;1.23;1.17;;;;;;;;;;5028029;28;20041;-60
2023/09/06 09:13:37;;;;;;;0.98;0.90;;;;;;;;;;5023912;28;20037;-59
2023/09/06 09:16:10;;;;;;;0.70;0.70;;;;;;;;;;5026925;28;20208;-59
2023/09/06 09:18:41;;;;;;;0.70;0.70;;;;;;;;;;5026887;28;20048;-59
2023/09/06 09:21:11;;;;;;;1.27;1.10;;;;;;;;;;5018590;28;20045;-59
2023/09/06 09:23:44;;;;;;;1.05;1.00;;;;;;;;;;5027346;28;20045;-60
2023/09/06 09:26:10;;;;;;;1.42;1.33;;;;;;;;;;5016138;28;20794;-59
2023/09/06 09:28:36;;;;;;;1.33;1.23;;;;;;;;;;5015083;28;20600;-59
2023/09/06 09:31:02;;;;;;;2.75;1.48;;;;;;;;;;5015461;28;20494;-59
2023/09/06 09:33:28;;;;;;;1.90;1.27;;;;;;;;;;5026625;28;20036;-59
2023/09/06 09:35:54;;;;;;;1.10;1.10;;;;;;;;;;5018272;28;20052;-59
2023/09/06 09:38:20;;;;;;;1.40;1.30;;;;;;;;;;5025805;28;20092;-59
2023/09/06 09:40:46;;;;;;;3.10;1.42;;;;;;;;;;5027062;28;20779;-59
2023/09/06 09:43:12;;;;;;;2.55;1.08;;;;;;;;;;5028283;28;20030;-59
2023/09/06 09:45:41;;;;;;;3.08;1.25;;;;;;;;;;5027058;28;20121;-59
2023/09/06 09:48:08;;;;;;;0.88;0.88;;;;;;;;;;5018697;28;20494;-59
2023/09/06 09:50:35;;;;;;;1.88;0.90;;;;;;;;;;5015037;28;20046;-59
2023/09/06 09:53:03;;;;;;;0.80;0.77;;;;;;;;;;5015817;28;20052;-59
2023/09/06 09:55:34;;;;;;;0.80;0.80;;;;;;;;;;5021953;28;20033;-59
2023/09/06 09:58:05;;;;;;;0.85;0.82;;;;;;;;;;5023128;28;20080;-59
2023/09/06 10:00:32;;;;;;;0.80;0.80;;;;;;;;;;5025861;28;20121;-59
2023/09/06 10:02:58;;;;;;;0.75;0.75;;;;;;;;;;5021517;28;20606;-59
2023/09/06 10:05:29;;;;;;;1.30;1.20;;;;;;;;;;5025869;28;20041;-59
2023/09/06 10:07:56;;;;;;;1.45;1.00;;;;;;;;;;5019525;28;20130;-59
2023/09/06 10:10:24;;;;;;;1.20;1.10;;;;;;;;;;5022604;28;20033;-59
2023/09/06 10:12:50;;;;;;;0.88;0.88;;;;;;;;;;5015725;28;20440;-59
2023/09/06 10:15:19;;;;;;;1.77;1.25;;;;;;;;;;5017840;28;20041;-59
2023/09/06 10:17:48;;;;;;;1.17;0.90;;;;;;;;;;5023618;28;20040;-59
2023/09/06 10:20:16;;;;;;;2.58;1.23;;;;;;;;;;5025929;28;20115;-58
2023/09/06 10:22:43;;;;;;;2.72;1.35;;;;;;;;;;5027396;28;20041;-59
2023/09/06 10:25:10;;;;;;;1.45;1.30;;;;;;;;;;5026619;28;20116;-59
2023/09/06 10:27:50;;;;;;;1.38;1.27;;;;;;;;;;5022426;28;20087;-59
2023/09/06 10:30:19;;;;;;;1.30;1.20;;;;;;;;;;5022993;28;20408;-59
2023/09/06 10:32:46;;;;;;;2.38;1.20;;;;;;;;;;5025280;28;20683;-60
2023/09/06 10:35:32;;;;;;;1.08;0.98;;;;;;;;;;5027049;28;20227;-59
2023/09/06 10:38:19;;;;;;;1.10;1.00;;;;;;;;;;5020921;28;20128;-59
2023/09/06 10:40:48;;;;;;;0.75;0.75;;;;;;;;;;5025898;28;20045;-59
2023/09/06 10:43:14;;;;;;;0.85;0.82;;;;;;;;;;5026043;28;20532;-59
2023/09/06 10:45:40;;;;;;;1.55;1.00;;;;;;;;;;5025703;28;20180;-59
2023/09/06 10:48:10;;;;;;;1.00;0.90;;;;;;;;;;5024743;28;20045;-59
2023/09/06 10:50:36;;;;;;;1.40;1.10;;;;;;;;;;5015750;28;20435;-59
2023/09/06 10:53:03;;;;;;;1.55;1.40;;;;;;;;;;5021714;28;20056;-59
2023/09/06 10:55:30;;;;;;;1.63;1.52;;;;;;;;;;5025403;28;20624;-59
2023/09/06 10:57:59;;;;;;;1.50;1.40;;;;;;;;;;5026035;28;20045;-59
2023/09/06 11:00:27;;;;;;;1.60;1.50;;;;;;;;;;5024830;28;20046;-59
2023/09/06 11:03:05;;;;;;;0.90;0.90;;;;;;;;;;5021594;28;20120;-59
2023/09/06 11:05:35;;;;;;;0.75;0.75;;;;;;;;;;5024029;28;20041;-59
2023/09/06 11:08:02;;;;;;;1.55;1.00;;;;;;;;;;5023954;28;20379;-59
2023/09/06 11:10:28;;;;;;;1.67;1.13;;;;;;;;;;5020637;28;20046;-59
2023/09/06 11:12:57;;;;;;;3.33;0.88;;;;;;;;;;5022046;28;20041;-59
2023/09/06 11:15:24;;;;;;;0.80;0.80;;;;;;;;;;5022487;28;20041;-59
2023/09/06 11:17:59;;;;;;;1.20;1.10;;;;;;;;;;5025567;28;20068;-59
2023/09/06 11:20:26;;;;;;;1.30;1.20;;;;;;;;;;5021604;28;20064;-59
2023/09/06 11:22:52;;;;;;;0.90;0.90;;;;;;;;;;5023945;28;20049;-61
2023/09/06 11:25:20;;;;;;;0.77;0.77;;;;;;;;;;5010959;28;20041;-59
2023/09/06 11:27:47;;;;;;;0.90;0.90;;;;;;;;;;5015624;28;20055;-59
2023/09/06 11:30:18;;;;;;;1.30;0.93;;;;;;;;;;5025212;28;20045;-60
2023/09/06 11:32:44;;;;;;;;;;;;;;;;;;5026358;28;20096;-60
2023/09/06 11:35:11;;;;;;;1.58;1.48;;;;;;;;;;5025843;28;20430;-59
2023/09/06 11:37:39;;;;;;;1.70;1.60;;;;;;;;;;5021890;28;20080;-60
2023/09/06 11:40:15;;;;;;;1.15;1.00;;;;;;;;;;5024918;28;20045;-59
2023/09/06 11:42:52;;;;;;;1.20;1.10;;;;;;;;;;5024600;28;20042;-60
2023/09/06 11:45:20;;;;;;;2.90;1.05;;;;;;;;;;5019433;28;20049;-60
2023/09/06 11:47:46;;;;;;;1.33;1.23;;;;;;;;;;5021890;28;20473;-60
2023/09/06 11:50:18;;;;;;;1.85;1.10;;;;;;;;;;5025372;28;20042;-60
2023/09/06 11:52:48;;;;;;;0.73;0.73;;;;;;;;;;5025804;28;20518;-61
2023/09/06 11:55:21;;;;;;;1.25;1.15;;;;;;;;;;5021291;28;20072;-60
2023/09/06 11:57:52;;;;;;;0.95;0.85;;;;;;;;;;5021947;28;20038;-60
2023/09/06 12:00:27;;;;;;;1.30;1.00;;;;;;;;;;5022413;28;20048;-60
2023/09/06 12:02:54;;;;;;;0.90;0.90;;;;;;;;;;5015314;28;20301;-60
2023/09/06 12:05:26;;;;;;;0.98;0.88;;;;;;;;;;5016431;28;20048;-60
2023/09/06 12:07:55;;;;;;;1.15;1.05;;;;;;;;;;5012560;28;20061;-60
2023/09/06 12:10:21;;;;;;;1.30;0.90;;;;;;;;;;5016107;28;20103;-60
2023/09/06 12:12:48;;;;;;;0.70;0.70;;;;;;;;;;5022393;28;20575;-60
2023/09/06 12:15:17;;;;;;;0.65;0.65;;;;;;;;;;5024185;28;20045;-60
2023/09/06 12:17:45;;;;;;;0.80;0.80;;;;;;;;;;5025124;28;20045;-60
2023/09/06 12:20:23;;;;;;;1.20;1.10;;;;;;;;;;5016222;28;20670;-61
2023/09/06 12:22:49;;;;;;;0.95;0.95;;;;;;;;;;5015483;28;20045;-60
2023/09/06 12:25:15;;;;;;;0.98;0.90;;;;;;;;;;5014329;28;20169;-61
2023/09/06 12:27:45;;;;;;;0.68;0.68;;;;;;;;;;5014003;28;20111;-59
2023/09/06 12:30:11;;;;;;;0.95;0.88;;;;;;;;;;5016794;28;20045;-60
2023/09/06 12:32:41;;;;;;;0.93;0.93;;;;;;;;;;5023184;28;20140;-60
2023/09/06 12:35:07;;;;;;;0.70;0.70;;;;;;;;;;5023757;28;20055;-61
2023/09/06 12:37:35;;;;;;;1.42;1.30;;;;;;;;;;5023888;28;20037;-60
2023/09/06 12:40:01;;;;;;;1.30;1.20;;;;;;;;;;5023220;28;20037;-60
2023/09/06 12:42:27;;;;;;;2.30;1.25;;;;;;;;;;5023930;28;20474;-60
2023/09/06 12:44:53;;;;;;;0.80;0.80;;;;;;;;;;5023630;28;20091;-60
2023/09/06 12:47:19;;;;;;;1.48;0.73;;;;;;;;;;5024609;28;20111;-60
2023/09/06 12:49:45;;;;;;;0.68;0.68;;;;;;;;;;5029045;28;20098;-60
2023/09/06 12:52:13;;;;;;;0.68;0.68;;;;;;;;;;5028524;28;20053;-60
2023/09/06 12:54:39;;;;;;;0.80;0.80;;;;;;;;;;5018672;28;20041;-60
2023/09/06 12:57:05;;;;;;;0.70;0.70;;;;;;;;;;5028315;28;20118;-60
2023/09/06 12:59:31;;;;;;;0.80;0.80;;;;;;;;;;5028447;28;20046;-60
2023/09/06 13:01:57;;;;;;;1.42;1.00;;;;;;;;;;5027619;28;20395;-60
2023/09/06 13:04:24;;;;;;;0.88;0.82;;;;;;;;;;5028093;28;20041;-60
2023/09/06 13:06:50;;;;;;;2.75;1.02;;;;;;;;;;5028335;28;20142;-60
2023/09/06 13:09:17;;;;;;;2.05;0.93;;;;;;;;;;5028038;28;20084;-60
2023/09/06 13:11:43;;;;;;;1.00;0.95;;;;;;;;;;5028685;28;20124;-60
2023/09/06 13:14:09;;;;;;;0.70;0.70;;;;;;;;;;5027998;28;20843;-60
2023/09/06 13:16:35;;;;;;;1.25;0.80;;;;;;;;;;5027338;28;20106;-60
2023/09/06 13:19:01;;;;;;;0.70;0.70;;;;;;;;;;5019497;28;20049;-60
2023/09/06 13:21:27;;;;;;;0.85;0.85;;;;;;;;;;5019750;28;20041;-60
2023/09/06 13:23:53;;;;;;;0.80;0.80;;;;;;;;;;5017701;28;20042;-60
2023/09/06 13:26:19;;;;;;;1.10;1.00;;;;;;;;;;5015210;28;20108;-60
2023/09/06 13:28:45;;;;;;;1.38;1.08;;;;;;;;;;5016331;28;20038;-60
2023/09/06 13:31:11;;;;;;;1.10;1.00;;;;;;;;;;5018971;28;20489;-60
2023/09/06 13:33:37;;;;;;;0.73;0.68;;;;;;;;;;5019175;28;20033;-60
2023/09/06 13:36:04;;;;;;;0.82;0.77;;;;;;;;;;5017484;28;20037;-60
2023/09/06 13:38:30;;;;;;;0.80;0.80;;;;;;;;;;5015999;28;20486;-60
2023/09/06 13:40:57;;;;;;;0.70;0.65;;;;;;;;;;5016038;28;20543;-60
2023/09/06 13:43:23;;;;;;;2.15;0.82;;;;;;;;;;5018074;28;20045;-61
2023/09/06 13:45:49;;;;;;;0.93;0.70;;;;;;;;;;5019185;28;20041;-60
2023/09/06 13:48:15;;;;;;;1.00;1.00;;;;;;;;;;5018235;28;20065;-60
2023/09/06 13:50:41;;;;;;;0.88;0.73;;;;;;;;;;5015330;28;20103;-60
2023/09/06 13:53:07;;;;;;;2.58;0.90;;;;;;;;;;5015968;28;20034;-60
2023/09/06 13:55:33;;;;;;;0.70;0.70;;;;;;;;;;5018417;28;20056;-61
2023/09/06 13:57:59;;;;;;;0.80;0.80;;;;;;;;;;5017969;28;20553;-59
2023/09/06 14:00:25;;;;;;;1.27;0.77;;;;;;;;;;5016853;28;20041;-60
2023/09/06 14:02:51;;;;;;;0.80;0.80;;;;;;;;;;5015455;28;20374;-60
2023/09/06 14:05:17;;;;;;;0.82;0.82;;;;;;;;;;5015633;28;20045;-59
2023/09/06 14:07:43;;;;;;;0.60;0.60;;;;;;;;;;5018432;28;20050;-60
2023/09/06 14:10:09;;;;;;;0.70;0.70;;;;;;;;;;5018721;28;20041;-60
2023/09/06 14:12:35;;;;;;;0.65;0.60;;;;;;;;;;5017812;28;20539;-60
2023/09/06 14:15:01;;;;;;;0.95;0.73;;;;;;;;;;5015673;28;20049;-60
2023/09/06 14:17:27;;;;;;;1.95;0.80;;;;;;;;;;5015623;28;20042;-61
2023/09/06 14:19:53;;;;;;;0.95;0.77;;;;;;;;;;5016878;28;20512;-60
2023/09/06 14:22:19;;;;;;;0.50;0.50;;;;;;;;;;5018545;28;20394;-60
2023/09/06 14:24:45;;;;;;;0.73;0.70;;;;;;;;;;5018649;28;20033;-60
2023/09/06 14:27:13;;;;;;;0.60;0.60;;;;;;;;;;5014692;28;20077;-60
2023/09/06 14:29:39;;;;;;;0.68;0.65;;;;;;;;;;5015279;28;20050;-60
2023/09/06 14:32:06;;;;;;;0.50;0.50;;;;;;;;;;5016337;28;20038;-60
2023/09/06 14:34:33;;;;;;;0.95;0.80;;;;;;;;;;5018652;28;20037;-60
2023/09/06 14:36:59;;;;;;;1.00;0.75;;;;;;;;;;5018026;28;20078;-60
2023/09/06 14:39:25;;;;;;;0.50;0.50;;;;;;;;;;5014460;28;20073;-60
2023/09/06 14:41:51;;;;;;;0.75;0.50;;;;;;;;;;5015042;28;20045;-61
2023/09/06 14:44:17;;;;;;;0.73;0.73;;;;;;;;;;5017053;28;20124;-61